Time;durP1;ratioP1;P1;durP2;ratioP2;P2;SDS_P1;SDS_P2;PMS_P1;PMS_P2;Temp;Humidity;BMP_temperature;BMP_pressure;BME280_temperature;BME280_humidity;BME280_pressure;Samples;Min_cycle;Max_cycle;Signal;HPM_P1;HPM_P2
2021/01/13 00:00:18;;;;;;;16.80;3.15;;;;;;;;;;5094929;28;20110;-73
2021/01/13 00:02:43;;;;;;;13.85;3.30;;;;;;;;;;5096122;28;20032;-73
2021/01/13 00:05:10;;;;;;;11.77;2.70;;;;;;;;;;5095779;28;20059;-72
2021/01/13 00:07:35;;;;;;;13.25;2.90;;;;;;;;;;5096177;28;20116;-72
2021/01/13 00:10:00;;;;;;;19.65;4.28;;;;;;;;;;5095978;28;20059;-72
2021/01/13 00:12:27;;;;;;;12.75;3.08;;;;;;;;;;5095979;28;20529;-73
2021/01/13 00:14:52;;;;;;;15.90;3.97;;;;;;;;;;5095858;28;20036;-73
2021/01/13 00:17:18;;;;;;;18.90;3.10;;;;;;;;;;5095922;28;20031;-73
2021/01/13 00:19:43;;;;;;;16.27;2.92;;;;;;;;;;5095606;28;20032;-73
2021/01/13 00:22:08;;;;;;;14.48;3.47;;;;;;;;;;5095839;28;20032;-73
2021/01/13 00:24:34;;;;;;;14.20;3.55;;;;;;;;;;5095803;28;20442;-73
2021/01/13 00:27:01;;;;;;;11.23;2.90;;;;;;;;;;5095809;28;20130;-73
2021/01/13 00:29:27;;;;;;;18.38;3.35;;;;;;;;;;5095470;28;20044;-73
2021/01/13 00:31:59;;;;;;;16.65;3.50;;;;;;;;;;5095646;28;20040;-73
2021/01/13 00:34:26;;;;;;;23.05;3.22;;;;;;;;;;5095346;28;20036;-72
2021/01/13 00:36:51;;;;;;;19.95;3.50;;;;;;;;;;5095579;28;20382;-73
2021/01/13 00:39:17;;;;;;;12.73;2.85;;;;;;;;;;5077426;28;20107;-73
2021/01/13 00:41:42;;;;;;;16.85;3.78;;;;;;;;;;5095359;28;20031;-73
2021/01/13 00:44:08;;;;;;;13.18;2.72;;;;;;;;;;5094045;28;20052;-73
2021/01/13 00:46:40;;;;;;;14.05;3.92;;;;;;;;;;5095073;28;20043;-72
2021/01/13 00:49:07;;;;;;;16.25;2.95;;;;;;;;;;5094954;28;20060;-72
2021/01/13 00:51:41;;;;;;;15.13;3.72;;;;;;;;;;5095399;28;20032;-73
2021/01/13 00:54:08;;;;;;;18.92;3.85;;;;;;;;;;5095178;28;20032;-73
2021/01/13 00:56:34;;;;;;;21.00;3.95;;;;;;;;;;5095034;28;20036;-73
2021/01/13 00:59:00;;;;;;;17.23;3.72;;;;;;;;;;5094884;28;20431;-73
2021/01/13 01:01:27;;;;;;;15.57;2.72;;;;;;;;;;5092453;28;20160;-73
2021/01/13 01:03:56;;;;;;;19.95;4.30;;;;;;;;;;5093754;28;20488;-72
2021/01/13 01:06:22;;;;;;;11.35;2.90;;;;;;;;;;5094998;28;20401;-73
2021/01/13 01:08:48;;;;;;;13.77;3.85;;;;;;;;;;5094865;28;20111;-72
2021/01/13 01:11:24;;;;;;;28.95;3.28;;;;;;;;;;5094624;28;20571;-73
2021/01/13 01:13:50;;;;;;;20.35;3.53;;;;;;;;;;5093624;28;20035;-72
2021/01/13 01:16:16;;;;;;;15.38;3.90;;;;;;;;;;5093548;28;20415;-73
2021/01/13 01:18:42;;;;;;;13.45;2.78;;;;;;;;;;5093338;28;20032;-73
2021/01/13 01:21:08;;;;;;;23.55;4.63;;;;;;;;;;5076246;28;20504;-72
2021/01/13 01:23:34;;;;;;;25.13;3.05;;;;;;;;;;5094654;28;20036;-73
2021/01/13 01:26:01;;;;;;;14.00;5.30;;;;;;;;;;5094549;28;20036;-73
2021/01/13 01:28:26;;;;;;;16.98;3.40;;;;;;;;;;5094467;28;20086;-73
2021/01/13 01:30:51;;;;;;;7.88;2.85;;;;;;;;;;5094554;28;20067;-73
2021/01/13 01:33:17;;;;;;;17.33;3.45;;;;;;;;;;5094517;28;20035;-73
2021/01/13 01:35:42;;;;;;;20.48;4.28;;;;;;;;;;5094293;28;20040;-72
2021/01/13 01:38:08;;;;;;;11.10;2.65;;;;;;;;;;5094490;28;20039;-73
2021/01/13 01:40:33;;;;;;;17.80;3.50;;;;;;;;;;5094138;28;20032;-73
2021/01/13 01:42:58;;;;;;;17.70;4.00;;;;;;;;;;5094217;28;20119;-72
2021/01/13 01:45:28;;;;;;;12.00;2.88;;;;;;;;;;5094209;28;20052;-73
2021/01/13 01:50:32;;;;;;;16.85;6.10;;;;;;;;;;5093851;28;20489;-73
2021/01/13 01:53:20;;;;;;;14.18;3.17;;;;;;;;;;5094105;28;20036;-72
2021/01/13 01:55:50;;;;;;;21.08;3.97;;;;;;;;;;5094072;28;20130;-72
2021/01/13 01:58:25;;;;;;;9.95;3.33;;;;;;;;;;5093932;28;20056;-72
2021/01/13 02:00:54;;;;;;;15.57;3.90;;;;;;;;;;5092710;28;20428;-73
2021/01/13 02:03:22;;;;;;;9.95;2.95;;;;;;;;;;5092584;28;20085;-72
2021/01/13 02:05:51;;;;;;;17.60;3.53;;;;;;;;;;5093524;28;20039;-72
2021/01/13 02:08:23;;;;;;;15.13;3.47;;;;;;;;;;5094058;28;20378;-73
2021/01/13 02:10:50;;;;;;;22.08;3.50;;;;;;;;;;5093923;28;20034;-73
2021/01/13 02:13:19;;;;;;;13.27;3.45;;;;;;;;;;5093448;28;20116;-73
2021/01/13 02:15:47;;;;;;;20.45;3.90;;;;;;;;;;5092381;28;20032;-73
2021/01/13 02:18:15;;;;;;;16.48;3.40;;;;;;;;;;5093533;28;20038;-73
2021/01/13 02:20:45;;;;;;;16.67;4.85;;;;;;;;;;5093271;28;20071;-73
2021/01/13 02:23:29;;;;;;;18.95;4.05;;;;;;;;;;5093709;28;20127;-73
2021/01/13 02:26:13;;;;;;;19.98;4.15;;;;;;;;;;5093743;28;20036;-72
2021/01/13 02:28:51;;;;;;;28.98;5.22;;;;;;;;;;5093178;28;20028;-72
2021/01/13 02:31:28;;;;;;;19.60;4.88;;;;;;;;;;5093600;28;20426;-72
2021/01/13 02:34:01;;;;;;;16.77;3.35;;;;;;;;;;5093654;28;20465;-72
2021/01/13 02:36:59;;;;;;;21.00;4.20;;;;;;;;;;5093170;28;20043;-72
2021/01/13 02:39:26;;;;;;;17.15;4.03;;;;;;;;;;5093564;28;20432;-72
2021/01/13 02:41:56;;;;;;;13.15;3.60;;;;;;;;;;5093495;28;20040;-72
2021/01/13 02:44:28;;;;;;;12.48;4.47;;;;;;;;;;5093455;28;20110;-73
2021/01/13 02:46:56;;;;;;;24.80;4.30;;;;;;;;;;5093243;28;20039;-72
2021/01/13 02:49:28;;;;;;;12.60;3.30;;;;;;;;;;5091526;28;20151;-72
2021/01/13 02:51:56;;;;;;;13.50;4.07;;;;;;;;;;5093400;28;20077;-72
2021/01/13 02:54:33;;;;;;;22.45;4.57;;;;;;;;;;5093383;28;20405;-72
2021/01/13 02:57:06;;;;;;;18.10;5.45;;;;;;;;;;5093304;28;20119;-72
2021/01/13 02:59:34;;;;;;;13.02;3.72;;;;;;;;;;5091899;28;20036;-72
2021/01/13 03:02:12;;;;;;;20.95;4.88;;;;;;;;;;5093206;28;20038;-72
2021/01/13 03:04:39;;;;;;;19.95;4.38;;;;;;;;;;5091584;28;20036;-72
2021/01/13 03:07:10;;;;;;;20.30;3.75;;;;;;;;;;5091949;28;20040;-72
2021/01/13 03:09:37;;;;;;;15.98;3.85;;;;;;;;;;5093046;28;20042;-72
2021/01/13 03:12:16;;;;;;;19.92;3.80;;;;;;;;;;5091162;28;20035;-72
2021/01/13 03:14:43;;;;;;;11.40;3.42;;;;;;;;;;5092974;28;20043;-73
2021/01/13 03:17:20;;;;;;;13.43;3.63;;;;;;;;;;5092749;28;20047;-72
2021/01/13 03:20:01;;;;;;;10.38;3.55;;;;;;;;;;5092907;28;20397;-72
2021/01/13 03:22:31;;;;;;;15.60;3.17;;;;;;;;;;5092856;28;20032;-71
2021/01/13 03:25:10;;;;;;;22.65;4.68;;;;;;;;;;5095750;28;20032;-72
2021/01/13 03:27:42;;;;;;;9.70;2.95;;;;;;;;;;5096455;28;20043;-73
2021/01/13 03:30:09;;;;;;;18.65;3.25;;;;;;;;;;5096536;28;20085;-73
2021/01/13 03:33:00;;;;;;;11.75;2.67;;;;;;;;;;5096898;28;20047;-72
2021/01/13 03:35:42;;;;;;;11.80;3.40;;;;;;;;;;5096345;28;20514;-73
2021/01/13 03:38:13;;;;;;;12.13;3.22;;;;;;;;;;5096628;28;20537;-73
2021/01/13 03:40:39;;;;;;;16.15;3.40;;;;;;;;;;5096720;28;20454;-73
2021/01/13 03:43:15;;;;;;;12.93;3.30;;;;;;;;;;5096563;28;20039;-73
2021/01/13 03:45:41;;;;;;;9.18;2.83;;;;;;;;;;5096545;28;20048;-71
2021/01/13 03:48:17;;;;;;;17.88;4.35;;;;;;;;;;5096299;28;20481;-73
2021/01/13 03:50:45;;;;;;;19.92;3.53;;;;;;;;;;5077875;28;20032;-73
2021/01/13 03:53:13;;;;;;;16.85;3.10;;;;;;;;;;5096432;28;20043;-72
2021/01/13 03:55:40;;;;;;;22.27;3.10;;;;;;;;;;5078138;28;20028;-72
2021/01/13 03:58:09;;;;;;;14.75;3.30;;;;;;;;;;5095101;28;20399;-74
2021/01/13 04:00:46;;;;;;;21.00;4.40;;;;;;;;;;5096137;28;20043;-73
2021/01/13 04:03:25;;;;;;;12.32;2.58;;;;;;;;;;5096283;28;20564;-72
2021/01/13 04:06:04;;;;;;;12.73;2.90;;;;;;;;;;5095961;28;20123;-73
2021/01/13 04:08:45;;;;;;;14.50;3.03;;;;;;;;;;5095666;28;20032;-73
2021/01/13 04:11:11;;;;;;;12.40;3.00;;;;;;;;;;5096214;28;20039;-73
2021/01/13 04:13:36;;;;;;;20.50;4.13;;;;;;;;;;5096018;28;20043;-73
2021/01/13 04:16:03;;;;;;;16.55;4.05;;;;;;;;;;5095948;28;20032;-73
2021/01/13 04:18:29;;;;;;;21.35;3.35;;;;;;;;;;5094443;28;20048;-73
2021/01/13 04:20:55;;;;;;;9.43;2.72;;;;;;;;;;5095654;28;20055;-73
2021/01/13 04:23:21;;;;;;;21.98;3.33;;;;;;;;;;5095702;28;20532;-73
2021/01/13 04:25:48;;;;;;;8.38;3.13;;;;;;;;;;5096023;28;20034;-73
2021/01/13 04:28:13;;;;;;;9.25;2.70;;;;;;;;;;5095722;28;20036;-73
2021/01/13 04:30:40;;;;;;;19.25;4.15;;;;;;;;;;5095747;28;20127;-73
2021/01/13 04:33:06;;;;;;;17.77;3.53;;;;;;;;;;5095700;28;20042;-73
2021/01/13 04:35:32;;;;;;;11.63;3.63;;;;;;;;;;5094973;28;20060;-73
2021/01/13 04:37:57;;;;;;;14.18;3.55;;;;;;;;;;5095383;28;20083;-73
2021/01/13 04:40:23;;;;;;;20.40;3.67;;;;;;;;;;5095508;28;20039;-73
2021/01/13 04:43:03;;;;;;;20.52;3.65;;;;;;;;;;5095487;28;20044;-73
2021/01/13 04:45:44;;;;;;;15.18;2.92;;;;;;;;;;5095458;28;20433;-74
2021/01/13 04:48:11;;;;;;;14.88;3.28;;;;;;;;;;5095295;28;20394;-74
2021/01/13 04:50:48;;;;;;;11.85;2.75;;;;;;;;;;5095059;28;20032;-73
2021/01/13 04:53:22;;;;;;;19.52;4.47;;;;;;;;;;5094126;28;20040;-74
2021/01/13 04:55:54;;;;;;;11.48;3.30;;;;;;;;;;5095332;28;20454;-74
2021/01/13 04:58:22;;;;;;;7.05;3.13;;;;;;;;;;5093972;28;20036;-74
2021/01/13 05:01:15;;;;;;;19.23;3.17;;;;;;;;;;5093778;28;20131;-73
2021/01/13 05:04:00;;;;;;;13.27;3.17;;;;;;;;;;5094891;28;20028;-73
2021/01/13 05:06:31;;;;;;;23.83;4.10;;;;;;;;;;5094528;28;20378;-73
2021/01/13 05:09:08;;;;;;;9.15;3.15;;;;;;;;;;5094510;28;20115;-72
2021/01/13 05:11:41;;;;;;;18.05;3.50;;;;;;;;;;5094773;28;20469;-73
2021/01/13 05:14:07;;;;;;;18.50;2.45;;;;;;;;;;5094680;28;20073;-73
2021/01/13 05:17:01;;;;;;;13.05;2.90;;;;;;;;;;5094589;28;20083;-73
2021/01/13 05:19:29;;;;;;;14.02;3.35;;;;;;;;;;5094735;28;20032;-73
2021/01/13 05:21:59;;;;;;;14.73;3.33;;;;;;;;;;5094217;28;20057;-73
2021/01/13 05:24:27;;;;;;;20.67;4.65;;;;;;;;;;5094764;28;20092;-73
2021/01/13 05:27:02;;;;;;;16.15;4.05;;;;;;;;;;5094705;28;20032;-73
2021/01/13 05:29:37;;;;;;;15.27;4.40;;;;;;;;;;5094250;28;20040;-73
2021/01/13 05:32:06;;;;;;;19.45;3.58;;;;;;;;;;5094487;28;20377;-73
2021/01/13 05:34:34;;;;;;;16.23;3.85;;;;;;;;;;5094531;28;20539;-73
2021/01/13 05:38:04;;;;;;;12.98;3.65;;;;;;;;;;5094145;28;20370;-73
2021/01/13 05:40:29;;;;;;;16.40;3.15;;;;;;;;;;5012094;28;20522;-73
2021/01/13 05:42:56;;;;;;;18.83;3.53;;;;;;;;;;5011313;28;20084;-73
2021/01/13 05:45:24;;;;;;;13.98;3.50;;;;;;;;;;5065258;28;20060;-73
2021/01/13 05:47:53;;;;;;;14.73;3.10;;;;;;;;;;5093139;28;20093;-73
2021/01/13 05:50:21;;;;;;;21.45;3.25;;;;;;;;;;5092425;28;20089;-73
2021/01/13 05:52:48;;;;;;;18.35;3.10;;;;;;;;;;5094189;28;20040;-73
2021/01/13 05:55:16;;;;;;;15.77;3.58;;;;;;;;;;5094034;28;20085;-73
2021/01/13 05:58:02;;;;;;;16.98;3.75;;;;;;;;;;5093597;28;20126;-73
2021/01/13 06:00:29;;;;;;;17.02;3.45;;;;;;;;;;5094001;28;20055;-73
2021/01/13 06:03:03;;;;;;;23.55;4.45;;;;;;;;;;5092485;28;20433;-73
2021/01/13 06:05:33;;;;;;;20.23;4.38;;;;;;;;;;5093805;28;20093;-73
2021/01/13 06:08:01;;;;;;;17.80;3.72;;;;;;;;;;5093859;28;20038;-74
2021/01/13 06:10:36;;;;;;;12.85;3.08;;;;;;;;;;5093511;28;20470;-73
2021/01/13 06:13:04;;;;;;;18.80;3.95;;;;;;;;;;5093735;28;20093;-73
2021/01/13 06:15:30;;;;;;;14.73;3.60;;;;;;;;;;5093646;28;20085;-73
2021/01/13 06:17:57;;;;;;;13.93;3.30;;;;;;;;;;5093567;28;20464;-74
2021/01/13 06:20:30;;;;;;;11.18;3.35;;;;;;;;;;5093320;28;20081;-73
2021/01/13 06:22:58;;;;;;;11.10;2.97;;;;;;;;;;5093599;28;20032;-73
2021/01/13 06:25:26;;;;;;;12.80;3.58;;;;;;;;;;5093551;28;20086;-73
2021/01/13 06:27:57;;;;;;;14.68;3.55;;;;;;;;;;5093363;28;20040;-73
2021/01/13 06:30:28;;;;;;;17.13;3.35;;;;;;;;;;5093342;28;20051;-74
2021/01/13 06:33:10;;;;;;;21.70;3.80;;;;;;;;;;5093681;28;20069;-74
2021/01/13 06:35:41;;;;;;;18.27;4.30;;;;;;;;;;5093319;28;20032;-74
2021/01/13 06:38:09;;;;;;;21.17;3.97;;;;;;;;;;5093283;28;20039;-74
2021/01/13 06:40:36;;;;;;;21.70;4.70;;;;;;;;;;5093282;28;20040;-75
2021/01/13 06:43:12;;;;;;;10.98;3.05;;;;;;;;;;5093455;28;20125;-74
2021/01/13 06:45:37;;;;;;;17.40;3.83;;;;;;;;;;5093283;28;20508;-74
2021/01/13 06:48:03;;;;;;;18.85;3.63;;;;;;;;;;5093353;28;20044;-73
2021/01/13 06:50:37;;;;;;;19.70;3.40;;;;;;;;;;5092996;28;20114;-72
2021/01/13 06:53:12;;;;;;;13.45;3.45;;;;;;;;;;5093290;28;20044;-75
2021/01/13 06:55:39;;;;;;;11.90;3.85;;;;;;;;;;5093098;28;20036;-74
2021/01/13 06:58:15;;;;;;;11.25;2.45;;;;;;;;;;5094686;28;20032;-76
2021/01/13 07:00:59;;;;;;;17.35;5.68;;;;;;;;;;5097495;28;20123;-74
2021/01/13 07:03:29;;;;;;;12.85;3.00;;;;;;;;;;5097364;28;20527;-75
2021/01/13 07:05:56;;;;;;;19.23;3.88;;;;;;;;;;5097174;28;20094;-74
2021/01/13 07:08:23;;;;;;;17.02;3.55;;;;;;;;;;5095984;28;20043;-74
2021/01/13 07:10:59;;;;;;;13.50;4.80;;;;;;;;;;5096105;28;20046;-74
2021/01/13 07:13:24;;;;;;;;;;;;;;;;;;5097002;28;20355;-75
2021/01/13 07:15:50;;;;;;;14.00;4.37;;;;;;;;;;5097170;28;19919;-74
2021/01/13 07:18:15;;;;;;;13.35;3.47;;;;;;;;;;5097024;28;20109;-74
2021/01/13 07:20:41;;;;;;;14.07;4.00;;;;;;;;;;5096778;28;20040;-74
2021/01/13 07:23:08;;;;;;;17.85;3.83;;;;;;;;;;5097030;28;20068;-74
2021/01/13 07:25:43;;;;;;;18.38;3.50;;;;;;;;;;5097175;28;20043;-77
2021/01/13 07:28:09;;;;;;;15.70;3.75;;;;;;;;;;5096846;28;20398;-74
2021/01/13 07:30:35;;;;;;;28.08;3.95;;;;;;;;;;5096332;28;20066;-73
2021/01/13 07:33:10;;;;;;;14.23;3.70;;;;;;;;;;5096792;28;20032;-73
2021/01/13 07:35:43;;;;;;;12.63;3.78;;;;;;;;;;5095984;28;20032;-73
2021/01/13 07:38:13;;;;;;;19.05;4.95;;;;;;;;;;5096792;28;20032;-73
2021/01/13 07:40:47;;;;;;;17.77;4.15;;;;;;;;;;5096663;28;20032;-73
2021/01/13 07:43:26;;;;;;;14.27;3.60;;;;;;;;;;5096615;28;20040;-74
2021/01/13 07:45:52;;;;;;;14.82;4.22;;;;;;;;;;5096598;28;20048;-73
2021/01/13 07:48:53;;;;;;;11.23;4.43;;;;;;;;;;5096156;28;20397;-73
2021/01/13 07:51:19;;;;;;;11.27;3.40;;;;;;;;;;5062263;28;20047;-75
2021/01/13 07:54:04;;;;;;;13.40;3.88;;;;;;;;;;5096015;28;20055;-76
2021/01/13 07:56:34;;;;;;;15.23;4.03;;;;;;;;;;5096240;28;20122;-75
2021/01/13 07:59:24;;;;;;;15.95;3.88;;;;;;;;;;5095746;28;20039;-75
2021/01/13 08:02:29;;;;;;;13.05;4.28;;;;;;;;;;5094800;28;20035;-76
2021/01/13 08:05:16;;;;;;;14.23;4.05;;;;;;;;;;5096250;28;20040;-76
2021/01/13 08:07:42;;;;;;;8.82;4.07;;;;;;;;;;5096318;28;20044;-76
2021/01/13 08:10:08;;;;;;;11.45;4.25;;;;;;;;;;5095362;28;20036;-76
2021/01/13 08:13:11;;;;;;;12.85;4.63;;;;;;;;;;5094597;28;20035;-73
2021/01/13 08:15:39;;;;;;;9.77;5.20;;;;;;;;;;5095921;28;20412;-73
2021/01/13 08:18:12;;;;;;;13.75;5.38;;;;;;;;;;5094803;28;20059;-73
2021/01/13 08:21:11;;;;;;;15.13;4.93;;;;;;;;;;5095738;28;20043;-73
2021/01/13 08:23:41;;;;;;;12.68;4.97;;;;;;;;;;5095819;28;20032;-73
2021/01/13 08:26:07;;;;;;;12.32;4.95;;;;;;;;;;5095879;28;20032;-72
2021/01/13 08:28:38;;;;;;;11.80;4.97;;;;;;;;;;5094146;28;20040;-73
2021/01/13 08:31:05;;;;;;;14.43;5.60;;;;;;;;;;5095618;28;20482;-73
2021/01/13 08:33:36;;;;;;;11.00;4.50;;;;;;;;;;5095631;28;20491;-72
2021/01/13 08:36:10;;;;;;;10.88;4.88;;;;;;;;;;5094352;28;20040;-72
2021/01/13 08:38:36;;;;;;;8.50;4.47;;;;;;;;;;5095051;28;20032;-72
2021/01/13 08:41:20;;;;;;;8.77;4.45;;;;;;;;;;5095617;28;20050;-72
2021/01/13 08:44:05;;;;;;;7.65;4.20;;;;;;;;;;5095343;28;20054;-73
2021/01/13 08:46:41;;;;;;;8.48;5.18;;;;;;;;;;5095456;28;20487;-72
2021/01/13 08:49:07;;;;;;;12.05;4.65;;;;;;;;;;5095039;28;20051;-73
2021/01/13 08:51:34;;;;;;;9.98;5.28;;;;;;;;;;5093858;28;20485;-74
2021/01/13 08:54:26;;;;;;;9.25;5.20;;;;;;;;;;5095185;28;20032;-74
2021/01/13 08:56:55;;;;;;;9.00;4.68;;;;;;;;;;5091257;28;20048;-74
2021/01/13 08:59:43;;;;;;;9.82;5.07;;;;;;;;;;5095208;28;20032;-74
2021/01/13 09:02:18;;;;;;;13.80;5.85;;;;;;;;;;5095100;28;20541;-74
2021/01/13 09:04:51;;;;;;;12.30;5.37;;;;;;;;;;5095058;28;20406;-73
2021/01/13 09:07:20;;;;;;;19.73;6.85;;;;;;;;;;5094458;28;20277;-74
2021/01/13 09:09:56;;;;;;;9.27;4.97;;;;;;;;;;5094850;28;20580;-73
2021/01/13 09:12:29;;;;;;;12.60;4.90;;;;;;;;;;5094778;28;20040;-73
2021/01/13 09:15:06;;;;;;;9.43;4.60;;;;;;;;;;5094171;28;20028;-73
2021/01/13 09:17:36;;;;;;;12.43;6.28;;;;;;;;;;5094459;28;20123;-73
2021/01/13 09:20:07;;;;;;;18.08;5.55;;;;;;;;;;5093052;28;20032;-75
2021/01/13 09:22:54;;;;;;;15.27;4.85;;;;;;;;;;5092193;28;20043;-74
2021/01/13 09:25:31;;;;;;;15.90;5.82;;;;;;;;;;5094597;28;20074;-74
2021/01/13 09:28:02;;;;;;;18.95;5.43;;;;;;;;;;5093928;28;20043;-74
2021/01/13 09:30:38;;;;;;;10.45;4.63;;;;;;;;;;5094125;28;20036;-74
2021/01/13 09:33:08;;;;;;;;;;;;;;;;;;5093694;28;20063;-74
2021/01/13 09:35:39;;;;;;;16.65;6.63;;;;;;;;;;5094244;28;19919;-74
2021/01/13 09:38:25;;;;;;;20.08;7.32;;;;;;;;;;5094401;28;20039;-74
2021/01/13 09:41:04;;;;;;;16.95;6.03;;;;;;;;;;5094198;28;20036;-75
2021/01/13 09:43:41;;;;;;;16.13;5.82;;;;;;;;;;5094163;28;20371;-74
2021/01/13 09:46:07;;;;;;;10.27;5.13;;;;;;;;;;5094151;28;20044;-74
2021/01/13 09:48:35;;;;;;;17.92;6.97;;;;;;;;;;5092794;28;20080;-74
2021/01/13 09:51:10;;;;;;;20.95;7.30;;;;;;;;;;5093997;28;20132;-75
2021/01/13 09:53:57;;;;;;;20.85;7.63;;;;;;;;;;5094102;28;20036;-75
2021/01/13 09:56:24;;;;;;;17.10;6.20;;;;;;;;;;5094430;28;20039;-75
2021/01/13 09:58:51;;;;;;;12.40;5.07;;;;;;;;;;5094160;28;20508;-75
2021/01/13 10:01:22;;;;;;;20.50;5.72;;;;;;;;;;5093679;28;20039;-75
2021/01/13 10:03:51;;;;;;;14.00;5.60;;;;;;;;;;5093752;28;20544;-76
2021/01/13 10:06:22;;;;;;;10.55;4.85;;;;;;;;;;5093896;28;20090;-75
2021/01/13 10:08:49;;;;;;;16.40;5.32;;;;;;;;;;5093680;28;20127;-74
2021/01/13 10:11:16;;;;;;;10.32;5.22;;;;;;;;;;5090460;28;20084;-75
2021/01/13 10:13:43;;;;;;;12.07;5.88;;;;;;;;;;5108260;28;20043;-75
2021/01/13 10:16:11;;;;;;;11.27;5.28;;;;;;;;;;5099735;28;20024;-75
2021/01/13 10:18:54;;;;;;;20.15;5.93;;;;;;;;;;5093614;28;20042;-75
2021/01/13 10:21:20;;;;;;;15.77;6.03;;;;;;;;;;5091951;28;20597;-75
2021/01/13 10:23:47;;;;;;;21.50;7.55;;;;;;;;;;5113865;28;20110;-75
2021/01/13 10:26:13;;;;;;;17.98;7.05;;;;;;;;;;5113419;28;20169;-75
2021/01/13 10:28:39;;;;;;;25.15;6.70;;;;;;;;;;5113825;28;20506;-74
2021/01/13 10:31:07;;;;;;;11.95;5.75;;;;;;;;;;5113921;28;20073;-73
2021/01/13 10:33:53;;;;;;;22.98;7.25;;;;;;;;;;5095420;28;20125;-75
2021/01/13 10:36:34;;;;;;;23.00;6.57;;;;;;;;;;5113521;28;20035;-76
2021/01/13 10:39:11;;;;;;;18.08;6.15;;;;;;;;;;5114048;28;20449;-75
2021/01/13 10:41:42;;;;;;;21.40;6.28;;;;;;;;;;5113624;28;20032;-74
2021/01/13 10:44:13;;;;;;;18.98;6.65;;;;;;;;;;5112771;28;20039;-74
2021/01/13 10:46:56;;;;;;;19.98;6.60;;;;;;;;;;5095411;28;20028;-74
2021/01/13 10:49:36;;;;;;;18.23;6.25;;;;;;;;;;5093269;28;20114;-77
2021/01/13 10:52:16;;;;;;;13.55;5.47;;;;;;;;;;5094577;28;20500;-74
2021/01/13 10:54:55;;;;;;;14.73;6.07;;;;;;;;;;5093798;28;20517;-77
2021/01/13 10:57:31;;;;;;;18.67;6.03;;;;;;;;;;5093318;28;20042;-75
2021/01/13 11:00:11;;;;;;;22.42;6.78;;;;;;;;;;5092872;28;20032;-75
2021/01/13 11:02:37;;;;;;;18.02;7.05;;;;;;;;;;5093247;28;20032;-75
2021/01/13 11:05:04;;;;;;;18.30;5.63;;;;;;;;;;5091761;28;20483;-76
2021/01/13 11:07:38;;;;;;;22.75;6.10;;;;;;;;;;5093267;28;20032;-74
2021/01/13 11:10:05;;;;;;;19.33;6.43;;;;;;;;;;5093443;28;20416;-77
2021/01/13 11:12:31;;;;;;;23.63;6.40;;;;;;;;;;5092425;28;20082;-73
2021/01/13 11:14:57;;;;;;;18.27;7.30;;;;;;;;;;5096788;28;20042;-75
2021/01/13 11:17:25;;;;;;;15.27;5.80;;;;;;;;;;5111010;28;20118;-74
2021/01/13 11:19:53;;;;;;;16.17;5.93;;;;;;;;;;5112971;28;20034;-74
2021/01/13 11:22:45;;;;;;;16.33;5.70;;;;;;;;;;5111942;28;20040;-76
2021/01/13 11:25:23;;;;;;;22.45;8.23;;;;;;;;;;5113456;28;20153;-73
2021/01/13 11:27:57;;;;;;;16.15;5.47;;;;;;;;;;5113791;28;20039;-76
2021/01/13 11:30:23;;;;;;;20.60;6.60;;;;;;;;;;5113210;28;20040;-76
2021/01/13 11:32:53;;;;;;;18.52;6.45;;;;;;;;;;5111740;28;20193;-75
2021/01/13 11:35:30;;;;;;;21.67;6.55;;;;;;;;;;5113545;28;20504;-75
2021/01/13 11:38:26;;;;;;;21.23;7.65;;;;;;;;;;5112917;28;20035;-75
2021/01/13 11:41:22;;;;;;;22.75;6.03;;;;;;;;;;5113428;28;20085;-75
2021/01/13 11:43:50;;;;;;;22.63;6.65;;;;;;;;;;5113115;28;20039;-76
2021/01/13 11:46:16;;;;;;;25.00;7.00;;;;;;;;;;5100168;28;20032;-75
2021/01/13 11:48:50;;;;;;;14.35;5.45;;;;;;;;;;5096285;28;20139;-75
2021/01/13 11:51:18;;;;;;;19.63;6.45;;;;;;;;;;5096361;28;20077;-75
2021/01/13 11:53:47;;;;;;;20.67;6.68;;;;;;;;;;5096739;28;20039;-75
2021/01/13 11:56:12;;;;;;;28.10;6.03;;;;;;;;;;5096768;28;20067;-75
2021/01/13 11:58:47;;;;;;;22.52;5.53;;;;;;;;;;5096714;28;20068;-75
2021/01/13 12:01:12;;;;;;;19.33;4.85;;;;;;;;;;5096724;28;20036;-75
2021/01/13 12:03:38;;;;;;;13.63;4.25;;;;;;;;;;5096724;28;20016;-75
2021/01/13 12:06:08;;;;;;;14.10;6.03;;;;;;;;;;5094953;28;20043;-74
2021/01/13 12:08:33;;;;;;;16.48;5.00;;;;;;;;;;5096475;28;20457;-75
2021/01/13 12:10:59;;;;;;;25.48;6.20;;;;;;;;;;5097161;28;20089;-75
2021/01/13 12:13:27;;;;;;;20.05;5.55;;;;;;;;;;5097035;28;20040;-75
2021/01/13 12:16:01;;;;;;;20.60;4.78;;;;;;;;;;5095629;28;20040;-75
2021/01/13 12:18:33;;;;;;;17.27;5.85;;;;;;;;;;5096058;28;20036;-75
2021/01/13 12:21:28;;;;;;;15.90;5.10;;;;;;;;;;5094495;28;20089;-74
2021/01/13 12:23:54;;;;;;;21.70;4.80;;;;;;;;;;5088482;28;20193;-75
2021/01/13 12:26:22;;;;;;;13.55;4.80;;;;;;;;;;5095995;28;20028;-75
2021/01/13 12:28:50;;;;;;;18.33;5.03;;;;;;;;;;5095289;28;20036;-76
2021/01/13 12:31:17;;;;;;;16.65;4.47;;;;;;;;;;5097215;28;20038;-75
2021/01/13 12:33:55;;;;;;;13.13;4.47;;;;;;;;;;5096309;28;20570;-76
2021/01/13 12:36:24;;;;;;;19.73;3.92;;;;;;;;;;5098385;28;20044;-76
2021/01/13 12:38:51;;;;;;;18.48;5.85;;;;;;;;;;5096536;28;20045;-75
2021/01/13 12:41:25;;;;;;;18.10;4.43;;;;;;;;;;5096412;28;20078;-75
2021/01/13 12:43:52;;;;;;;15.68;5.13;;;;;;;;;;5095445;28;20036;-75
2021/01/13 12:46:29;;;;;;;16.75;4.78;;;;;;;;;;5094019;28;20447;-75
2021/01/13 12:48:55;;;;;;;19.08;4.18;;;;;;;;;;5094134;28;20039;-75
2021/01/13 12:51:21;;;;;;;17.88;4.50;;;;;;;;;;5095133;28;20462;-74
2021/01/13 12:53:46;;;;;;;20.08;5.55;;;;;;;;;;5095401;28;20032;-75
2021/01/13 12:56:29;;;;;;;15.25;4.25;;;;;;;;;;5095112;28;20039;-75
2021/01/13 12:58:56;;;;;;;16.88;4.18;;;;;;;;;;5093916;28;20035;-75
2021/01/13 13:01:22;;;;;;;14.02;3.95;;;;;;;;;;5095198;28;20039;-75
2021/01/13 13:03:48;;;;;;;19.13;4.50;;;;;;;;;;5094045;28;20048;-75
2021/01/13 13:06:27;;;;;;;16.27;4.18;;;;;;;;;;5094409;28;20130;-75
2021/01/13 13:08:59;;;;;;;12.73;4.30;;;;;;;;;;5094809;28;20531;-75
2021/01/13 13:11:24;;;;;;;19.85;4.85;;;;;;;;;;5094857;28;20426;-74
2021/01/13 13:13:50;;;;;;;15.85;4.22;;;;;;;;;;5095056;28;20066;-75
2021/01/13 13:16:16;;;;;;;21.35;4.68;;;;;;;;;;5094794;28;20044;-74
2021/01/13 13:18:41;;;;;;;14.50;4.05;;;;;;;;;;5094808;28;20119;-75
2021/01/13 13:21:12;;;;;;;26.42;4.40;;;;;;;;;;5076909;28;20053;-75
2021/01/13 13:23:38;;;;;;;29.90;5.97;;;;;;;;;;5094731;28;20040;-75
2021/01/13 13:26:04;;;;;;;22.27;4.95;;;;;;;;;;5094535;28;20072;-75
2021/01/13 13:28:30;;;;;;;14.05;3.72;;;;;;;;;;5094687;28;20548;-75
2021/01/13 13:30:55;;;;;;;17.77;3.95;;;;;;;;;;5094438;28;20031;-75
2021/01/13 13:33:21;;;;;;;30.98;4.95;;;;;;;;;;5093374;28;20055;-74
2021/01/13 13:35:49;;;;;;;13.32;4.05;;;;;;;;;;5094340;28;20036;-74
2021/01/13 13:38:15;;;;;;;10.77;4.15;;;;;;;;;;5094233;28;20038;-74
2021/01/13 13:40:40;;;;;;;17.67;4.72;;;;;;;;;;5094445;28;20059;-75
2021/01/13 13:43:06;;;;;;;20.25;5.15;;;;;;;;;;5094641;28;20107;-72
2021/01/13 13:45:31;;;;;;;11.85;3.90;;;;;;;;;;5094173;28;20502;-73
2021/01/13 13:47:56;;;;;;;20.40;3.90;;;;;;;;;;5094554;28;20028;-72
2021/01/13 13:50:22;;;;;;;9.85;3.78;;;;;;;;;;5094171;28;20042;-72
2021/01/13 13:52:47;;;;;;;17.52;4.32;;;;;;;;;;5093897;28;20071;-73
2021/01/13 13:55:12;;;;;;;15.73;3.63;;;;;;;;;;5093932;28;20072;-73
2021/01/13 13:57:38;;;;;;;16.85;3.38;;;;;;;;;;5089687;28;20063;-74
2021/01/13 14:00:05;;;;;;;19.50;4.90;;;;;;;;;;5076488;28;20120;-77
2021/01/13 14:02:37;;;;;;;21.73;5.13;;;;;;;;;;5073622;28;20460;-74
2021/01/13 14:05:03;;;;;;;18.02;3.70;;;;;;;;;;5072756;28;20032;-74
2021/01/13 14:07:30;;;;;;;11.93;4.32;;;;;;;;;;5071812;28;20085;-73
2021/01/13 14:09:55;;;;;;;17.60;4.68;;;;;;;;;;5071112;28;20033;-73
2021/01/13 14:12:21;;;;;;;15.98;4.85;;;;;;;;;;5072550;28;20039;-74
2021/01/13 14:14:46;;;;;;;17.58;5.10;;;;;;;;;;5074151;28;20075;-74
2021/01/13 14:17:11;;;;;;;14.13;4.57;;;;;;;;;;5093430;28;20035;-74
2021/01/13 14:19:37;;;;;;;18.13;4.55;;;;;;;;;;5093518;28;20031;-74
2021/01/13 14:22:02;;;;;;;14.48;4.97;;;;;;;;;;5093608;28;20089;-74
2021/01/13 14:24:28;;;;;;;17.88;4.75;;;;;;;;;;5093729;28;20117;-74
2021/01/13 14:26:58;;;;;;;16.67;5.13;;;;;;;;;;5092819;28;20036;-73
2021/01/13 14:29:24;;;;;;;16.17;5.40;;;;;;;;;;5093705;28;20032;-74
2021/01/13 14:31:50;;;;;;;16.27;6.43;;;;;;;;;;5093587;28;20089;-73
2021/01/13 14:34:15;;;;;;;14.70;5.13;;;;;;;;;;5093495;28;20032;-74
2021/01/13 14:36:41;;;;;;;18.33;5.47;;;;;;;;;;5092233;28;20044;-74
2021/01/13 14:39:06;;;;;;;19.50;5.82;;;;;;;;;;5093646;28;20039;-74
2021/01/13 14:41:33;;;;;;;21.25;5.60;;;;;;;;;;5093413;28;20035;-74
2021/01/13 14:43:59;;;;;;;18.25;5.85;;;;;;;;;;5093414;28;20052;-74
2021/01/13 14:46:25;;;;;;;15.73;5.85;;;;;;;;;;5093436;28;20496;-74
2021/01/13 14:48:50;;;;;;;17.67;5.82;;;;;;;;;;5093305;28;20111;-74
2021/01/13 14:51:16;;;;;;;13.95;5.18;;;;;;;;;;5093338;28;20043;-74
2021/01/13 14:53:41;;;;;;;20.13;5.47;;;;;;;;;;5093073;28;20036;-74
2021/01/13 14:56:07;;;;;;;18.90;6.30;;;;;;;;;;5093229;28;20039;-73